sensor_id;sensor_type;location;lat;lon;timestamp;P1;durP1;ratioP1;P2;durP2;ratioP2
44696;SDS011;57264;47.480;19.354;2022-11-20T09:05:14;25.38;;;14.00;;
44696;SDS011;57264;47.480;19.354;2022-11-20T09:07:39;18.80;;;11.67;;
44696;SDS011;57264;47.480;19.354;2022-11-20T09:10:06;20.92;;;11.50;;
44696;SDS011;57264;47.480;19.354;2022-11-20T09:12:33;18.70;;;9.77;;
44696;SDS011;57264;47.480;19.354;2022-11-20T09:14:58;21.33;;;11.13;;
44696;SDS011;57264;47.480;19.354;2022-11-20T09:17:23;17.47;;;9.93;;
44696;SDS011;57264;47.480;19.354;2022-11-20T09:19:49;17.77;;;9.13;;
44696;SDS011;57264;47.480;19.354;2022-11-20T09:22:14;15.83;;;9.17;;
44696;SDS011;57264;47.480;19.354;2022-11-20T09:24:40;17.97;;;10.23;;
44696;SDS011;57264;47.480;19.354;2022-11-20T09:27:07;14.00;;;8.30;;
44696;SDS011;57264;47.480;19.354;2022-11-20T09:29:33;13.00;;;7.50;;
44696;SDS011;57264;47.480;19.354;2022-11-20T09:31:58;16.20;;;8.83;;
44696;SDS011;57264;47.480;19.354;2022-11-20T09:34:24;17.23;;;10.17;;
44696;SDS011;57264;47.480;19.354;2022-11-20T09:36:49;19.10;;;10.73;;
44696;SDS011;57264;47.480;19.354;2022-11-20T09:39:15;23.03;;;12.30;;
44696;SDS011;57264;47.480;19.354;2022-11-20T09:44:28;22.50;;;12.18;;
44696;SDS011;57264;47.480;19.354;2022-11-20T09:47:08;22.10;;;12.40;;
44696;SDS011;57264;47.480;19.354;2022-11-20T09:55:36;25.38;;;14.90;;
44696;SDS011;57264;47.480;19.354;2022-11-20T09:58:05;26.98;;;15.13;;
44696;SDS011;57264;47.480;19.354;2022-11-20T10:00:34;26.00;;;14.85;;
44696;SDS011;57264;47.480;19.354;2022-11-20T10:03:14;26.00;;;15.95;;
44696;SDS011;57264;47.480;19.354;2022-11-20T10:05:46;30.05;;;15.02;;
44696;SDS011;57264;47.480;19.354;2022-11-20T10:08:28;24.63;;;14.85;;
44696;SDS011;57264;47.480;19.354;2022-11-20T10:13:46;30.88;;;16.75;;
44696;SDS011;57264;47.480;19.354;2022-11-20T10:24:56;31.52;;;16.33;;
44696;SDS011;57264;47.480;19.354;2022-11-20T10:30:26;28.23;;;16.58;;
44696;SDS011;57264;47.480;19.354;2022-11-20T10:32:54;29.98;;;16.30;;
44696;SDS011;57264;47.480;19.354;2022-11-20T10:35:29;29.35;;;17.15;;
44696;SDS011;57264;47.480;19.354;2022-11-20T10:38:09;32.38;;;16.90;;
44696;SDS011;57264;47.480;19.354;2022-11-20T10:41:01;32.03;;;16.90;;
44696;SDS011;57264;47.480;19.354;2022-11-20T16:49:40;166.50;;;46.35;;
44696;SDS011;57264;47.480;19.354;2022-11-20T16:52:05;116.37;;;37.13;;
44696;SDS011;57264;47.480;19.354;2022-11-20T16:54:31;107.10;;;37.17;;
44696;SDS011;57264;47.480;19.354;2022-11-20T16:57:00;103.93;;;37.00;;
44696;SDS011;57264;47.480;19.354;2022-11-20T16:59:33;88.80;;;33.33;;
44696;SDS011;57264;47.480;19.354;2022-11-20T17:03:29;101.70;;;37.20;;
44696;SDS011;57264;47.480;19.354;2022-11-20T17:05:55;105.93;;;38.50;;
44696;SDS011;57264;47.480;19.354;2022-11-20T17:08:20;100.80;;;38.00;;
44696;SDS011;57264;47.480;19.354;2022-11-20T17:10:46;110.40;;;38.33;;
44696;SDS011;57264;47.480;19.354;2022-11-20T17:13:11;88.67;;;34.97;;
44696;SDS011;57264;47.480;19.354;2022-11-20T17:15:36;86.27;;;35.03;;
44696;SDS011;57264;47.480;19.354;2022-11-20T17:18:02;100.17;;;35.83;;
44696;SDS011;57264;47.480;19.354;2022-11-20T17:20:28;90.03;;;34.53;;
44696;SDS011;57264;47.480;19.354;2022-11-20T17:22:55;73.05;;;31.60;;
44696;SDS011;57264;47.480;19.354;2022-11-20T17:25:20;70.97;;;31.83;;
44696;SDS011;57264;47.480;19.354;2022-11-20T17:27:46;78.17;;;29.53;;
44696;SDS011;57264;47.480;19.354;2022-11-20T17:30:11;83.50;;;30.87;;
44696;SDS011;57264;47.480;19.354;2022-11-20T17:32:37;93.83;;;32.87;;
44696;SDS011;57264;47.480;19.354;2022-11-20T17:35:03;100.63;;;35.13;;
44696;SDS011;57264;47.480;19.354;2022-11-20T17:37:29;112.23;;;37.57;;
44696;SDS011;57264;47.480;19.354;2022-11-20T17:39:55;103.40;;;36.10;;
44696;SDS011;57264;47.480;19.354;2022-11-20T17:42:20;99.63;;;35.63;;
44696;SDS011;57264;47.480;19.354;2022-11-20T17:44:53;92.88;;;34.88;;
44696;SDS011;57264;47.480;19.354;2022-11-20T17:47:19;88.20;;;35.13;;
44696;SDS011;57264;47.480;19.354;2022-11-20T17:49:45;91.97;;;37.88;;
44696;SDS011;57264;47.480;19.354;2022-11-20T17:52:10;93.73;;;35.93;;
44696;SDS011;57264;47.480;19.354;2022-11-20T17:54:36;76.40;;;30.63;;
44696;SDS011;57264;47.480;19.354;2022-11-20T17:57:01;69.03;;;29.13;;
44696;SDS011;57264;47.480;19.354;2022-11-20T17:59:46;77.18;;;32.05;;
44696;SDS011;57264;47.480;19.354;2022-11-20T18:02:11;73.43;;;28.33;;
44696;SDS011;57264;47.480;19.354;2022-11-20T18:04:36;77.70;;;28.53;;
44696;SDS011;57264;47.480;19.354;2022-11-20T18:07:02;56.33;;;24.00;;
44696;SDS011;57264;47.480;19.354;2022-11-20T18:09:27;63.90;;;24.23;;
44696;SDS011;57264;47.480;19.354;2022-11-20T18:11:53;56.93;;;22.73;;
44696;SDS011;57264;47.480;19.354;2022-11-20T18:14:19;51.23;;;22.43;;
44696;SDS011;57264;47.480;19.354;2022-11-20T18:16:58;55.30;;;22.48;;
44696;SDS011;57264;47.480;19.354;2022-11-20T18:19:43;49.17;;;20.98;;
44696;SDS011;57264;47.480;19.354;2022-11-20T18:22:12;55.35;;;21.13;;
44696;SDS011;57264;47.480;19.354;2022-11-20T18:24:39;67.43;;;22.90;;
44696;SDS011;57264;47.480;19.354;2022-11-20T18:27:07;75.28;;;24.35;;
44696;SDS011;57264;47.480;19.354;2022-11-20T18:29:40;84.20;;;30.83;;
44696;SDS011;57264;47.480;19.354;2022-11-20T18:32:05;62.03;;;25.90;;
44696;SDS011;57264;47.480;19.354;2022-11-20T18:34:31;60.93;;;24.90;;
44696;SDS011;57264;47.480;19.354;2022-11-20T18:36:57;62.50;;;24.90;;
44696;SDS011;57264;47.480;19.354;2022-11-20T18:39:26;63.15;;;22.70;;
44696;SDS011;57264;47.480;19.354;2022-11-20T18:41:54;59.30;;;22.42;;
44696;SDS011;57264;47.480;19.354;2022-11-20T18:44:39;61.22;;;22.20;;
44696;SDS011;57264;47.480;19.354;2022-11-20T18:47:20;43.53;;;19.92;;
44696;SDS011;57264;47.480;19.354;2022-11-20T18:49:58;45.75;;;20.63;;
44696;SDS011;57264;47.480;19.354;2022-11-20T18:52:30;44.80;;;19.25;;
44696;SDS011;57264;47.480;19.354;2022-11-20T18:55:03;53.50;;;20.75;;
44696;SDS011;57264;47.480;19.354;2022-11-20T18:57:31;47.47;;;18.73;;
44696;SDS011;57264;47.480;19.354;2022-11-20T18:59:58;44.95;;;19.20;;
44696;SDS011;57264;47.480;19.354;2022-11-20T19:02:29;43.35;;;17.38;;
44696;SDS011;57264;47.480;19.354;2022-11-20T19:04:57;46.45;;;18.58;;
44696;SDS011;57264;47.480;19.354;2022-11-20T19:07:22;42.13;;;17.37;;
44696;SDS011;57264;47.480;19.354;2022-11-20T19:09:51;43.38;;;16.67;;
44696;SDS011;57264;47.480;19.354;2022-11-20T19:12:24;42.70;;;17.20;;
44696;SDS011;57264;47.480;19.354;2022-11-20T19:14:52;43.53;;;17.65;;
44696;SDS011;57264;47.480;19.354;2022-11-20T19:17:22;48.70;;;20.38;;
44696;SDS011;57264;47.480;19.354;2022-11-20T19:19:52;58.25;;;23.33;;
44696;SDS011;57264;47.480;19.354;2022-11-20T19:22:24;62.60;;;22.45;;
44696;SDS011;57264;47.480;19.354;2022-11-20T19:24:51;54.53;;;21.00;;
44696;SDS011;57264;47.480;19.354;2022-11-20T19:27:17;51.67;;;20.17;;
44696;SDS011;57264;47.480;19.354;2022-11-20T19:29:45;46.05;;;19.60;;
44696;SDS011;57264;47.480;19.354;2022-11-20T19:32:11;57.47;;;19.23;;
44696;SDS011;57264;47.480;19.354;2022-11-20T19:34:36;66.47;;;22.13;;
44696;SDS011;57264;47.480;19.354;2022-11-20T19:37:02;62.07;;;21.67;;
44696;SDS011;57264;47.480;19.354;2022-11-20T19:39:27;60.73;;;22.87;;
44696;SDS011;57264;47.480;19.354;2022-11-20T19:41:53;58.20;;;20.53;;
44696;SDS011;57264;47.480;19.354;2022-11-20T19:44:18;68.10;;;24.83;;
44696;SDS011;57264;47.480;19.354;2022-11-20T19:46:44;59.97;;;23.17;;
44696;SDS011;57264;47.480;19.354;2022-11-20T19:49:11;51.37;;;20.83;;
44696;SDS011;57264;47.480;19.354;2022-11-20T19:51:38;50.80;;;21.35;;
44696;SDS011;57264;47.480;19.354;2022-11-20T19:54:07;51.33;;;21.60;;
44696;SDS011;57264;47.480;19.354;2022-11-20T19:56:33;52.03;;;22.40;;
44696;SDS011;57264;47.480;19.354;2022-11-20T19:58:59;51.40;;;23.07;;
44696;SDS011;57264;47.480;19.354;2022-11-20T20:01:26;54.15;;;23.08;;
44696;SDS011;57264;47.480;19.354;2022-11-20T20:03:54;51.50;;;21.58;;
44696;SDS011;57264;47.480;19.354;2022-11-20T20:06:23;54.15;;;23.38;;
44696;SDS011;57264;47.480;19.354;2022-11-20T20:08:53;50.28;;;22.65;;
44696;SDS011;57264;47.480;19.354;2022-11-20T20:11:21;49.40;;;22.23;;
44696;SDS011;57264;47.480;19.354;2022-11-20T20:13:47;42.70;;;20.55;;
44696;SDS011;57264;47.480;19.354;2022-11-20T20:16:14;49.03;;;20.63;;
44696;SDS011;57264;47.480;19.354;2022-11-20T20:18:42;44.40;;;18.83;;
44696;SDS011;57264;47.480;19.354;2022-11-20T20:21:12;43.25;;;19.25;;
44696;SDS011;57264;47.480;19.354;2022-11-20T20:23:39;38.85;;;17.92;;
44696;SDS011;57264;47.480;19.354;2022-11-20T20:26:06;38.45;;;17.98;;
44696;SDS011;57264;47.480;19.354;2022-11-20T20:28:32;47.63;;;19.80;;
44696;SDS011;57264;47.480;19.354;2022-11-20T20:31:10;60.63;;;22.90;;
44696;SDS011;57264;47.480;19.354;2022-11-20T20:33:37;65.75;;;25.25;;
44696;SDS011;57264;47.480;19.354;2022-11-20T20:36:03;60.40;;;23.85;;
44696;SDS011;57264;47.480;19.354;2022-11-20T20:38:30;61.08;;;24.67;;
44696;SDS011;57264;47.480;19.354;2022-11-20T20:40:56;54.13;;;21.57;;
44696;SDS011;57264;47.480;19.354;2022-11-20T20:43:22;52.77;;;21.97;;
44696;SDS011;57264;47.480;19.354;2022-11-20T20:45:48;52.70;;;21.70;;
44696;SDS011;57264;47.480;19.354;2022-11-20T20:48:15;49.42;;;21.63;;
44696;SDS011;57264;47.480;19.354;2022-11-20T20:50:51;45.50;;;21.92;;
44696;SDS011;57264;47.480;19.354;2022-11-20T20:53:21;49.83;;;22.40;;
44696;SDS011;57264;47.480;19.354;2022-11-20T20:56:00;55.28;;;23.27;;
44696;SDS011;57264;47.480;19.354;2022-11-20T20:58:26;62.60;;;25.67;;
44696;SDS011;57264;47.480;19.354;2022-11-20T21:00:53;48.67;;;22.92;;
44696;SDS011;57264;47.480;19.354;2022-11-20T21:03:23;52.47;;;23.83;;
44696;SDS011;57264;47.480;19.354;2022-11-20T21:05:54;56.90;;;24.60;;
44696;SDS011;57264;47.480;19.354;2022-11-20T21:08:22;70.57;;;27.35;;
44696;SDS011;57264;47.480;19.354;2022-11-20T21:10:50;68.03;;;27.92;;
44696;SDS011;57264;47.480;19.354;2022-11-20T21:13:17;61.65;;;26.60;;
44696;SDS011;57264;47.480;19.354;2022-11-20T21:15:45;63.72;;;26.38;;
44696;SDS011;57264;47.480;19.354;2022-11-20T21:18:12;64.72;;;25.55;;
44696;SDS011;57264;47.480;19.354;2022-11-20T21:20:40;57.30;;;25.80;;
44696;SDS011;57264;47.480;19.354;2022-11-20T21:23:24;60.10;;;25.58;;
44696;SDS011;57264;47.480;19.354;2022-11-20T21:25:49;58.00;;;24.87;;
44696;SDS011;57264;47.480;19.354;2022-11-20T21:28:15;63.93;;;27.23;;
44696;SDS011;57264;47.480;19.354;2022-11-20T21:30:41;57.58;;;27.02;;
44696;SDS011;57264;47.480;19.354;2022-11-20T21:33:06;63.50;;;27.67;;
44696;SDS011;57264;47.480;19.354;2022-11-20T21:35:32;57.30;;;23.87;;
44696;SDS011;57264;47.480;19.354;2022-11-20T21:37:59;61.58;;;24.90;;
44696;SDS011;57264;47.480;19.354;2022-11-20T21:40:24;52.10;;;21.98;;
44696;SDS011;57264;47.480;19.354;2022-11-20T21:42:51;52.33;;;21.53;;
44696;SDS011;57264;47.480;19.354;2022-11-20T21:45:21;56.50;;;22.05;;
44696;SDS011;57264;47.480;19.354;2022-11-20T21:48:00;49.00;;;20.70;;
44696;SDS011;57264;47.480;19.354;2022-11-20T21:50:25;51.60;;;22.03;;
44696;SDS011;57264;47.480;19.354;2022-11-20T21:52:51;46.20;;;20.00;;
44696;SDS011;57264;47.480;19.354;2022-11-20T21:55:17;44.83;;;20.83;;
44696;SDS011;57264;47.480;19.354;2022-11-20T21:57:42;44.97;;;18.47;;
44696;SDS011;57264;47.480;19.354;2022-11-20T22:00:08;46.33;;;19.37;;
44696;SDS011;57264;47.480;19.354;2022-11-20T22:02:34;45.80;;;20.92;;
44696;SDS011;57264;47.480;19.354;2022-11-20T22:05:03;45.10;;;19.52;;
44696;SDS011;57264;47.480;19.354;2022-11-20T22:07:31;43.40;;;19.67;;
44696;SDS011;57264;47.480;19.354;2022-11-20T22:09:58;50.03;;;21.65;;
44696;SDS011;57264;47.480;19.354;2022-11-20T22:12:25;45.08;;;19.75;;
44696;SDS011;57264;47.480;19.354;2022-11-20T22:14:51;50.30;;;22.20;;
44696;SDS011;57264;47.480;19.354;2022-11-20T22:17:18;45.80;;;22.60;;
44696;SDS011;57264;47.480;19.354;2022-11-20T22:20:05;46.50;;;20.33;;
44696;SDS011;57264;47.480;19.354;2022-11-20T22:22:31;45.03;;;21.08;;
44696;SDS011;57264;47.480;19.354;2022-11-20T22:24:57;51.43;;;22.53;;
44696;SDS011;57264;47.480;19.354;2022-11-20T22:27:22;64.67;;;26.33;;
44696;SDS011;57264;47.480;19.354;2022-11-20T22:29:47;50.40;;;23.63;;
44696;SDS011;57264;47.480;19.354;2022-11-20T22:32:13;51.17;;;22.80;;
44696;SDS011;57264;47.480;19.354;2022-11-20T22:34:39;50.40;;;21.90;;
44696;SDS011;57264;47.480;19.354;2022-11-20T22:37:04;49.23;;;23.50;;
44696;SDS011;57264;47.480;19.354;2022-11-20T22:39:30;50.33;;;22.07;;
44696;SDS011;57264;47.480;19.354;2022-11-20T22:41:56;50.53;;;21.23;;
44696;SDS011;57264;47.480;19.354;2022-11-20T22:44:21;41.13;;;20.30;;
44696;SDS011;57264;47.480;19.354;2022-11-20T22:46:47;56.53;;;25.97;;
44696;SDS011;57264;47.480;19.354;2022-11-20T22:49:12;54.57;;;24.73;;
44696;SDS011;57264;47.480;19.354;2022-11-20T22:51:39;45.87;;;20.43;;
44696;SDS011;57264;47.480;19.354;2022-11-20T22:54:06;44.20;;;21.70;;
44696;SDS011;57264;47.480;19.354;2022-11-20T22:56:33;38.00;;;18.15;;
44696;SDS011;57264;47.480;19.354;2022-11-20T22:58:59;39.37;;;18.23;;
44696;SDS011;57264;47.480;19.354;2022-11-20T23:03:56;42.03;;;17.55;;
44696;SDS011;57264;47.480;19.354;2022-11-20T23:06:26;39.80;;;16.48;;
44696;SDS011;57264;47.480;19.354;2022-11-20T23:08:53;33.60;;;16.75;;
44696;SDS011;57264;47.480;19.354;2022-11-20T23:11:21;34.25;;;16.88;;
44696;SDS011;57264;47.480;19.354;2022-11-20T23:13:53;35.88;;;17.23;;
44696;SDS011;57264;47.480;19.354;2022-11-20T23:16:23;43.33;;;19.27;;
44696;SDS011;57264;47.480;19.354;2022-11-20T23:18:58;42.88;;;19.83;;
44696;SDS011;57264;47.480;19.354;2022-11-20T23:21:35;42.20;;;18.73;;
44696;SDS011;57264;47.480;19.354;2022-11-20T23:24:02;37.70;;;17.63;;
44696;SDS011;57264;47.480;19.354;2022-11-20T23:26:29;53.05;;;19.05;;
44696;SDS011;57264;47.480;19.354;2022-11-20T23:28:57;71.50;;;21.15;;
44696;SDS011;57264;47.480;19.354;2022-11-20T23:31:24;64.07;;;22.48;;
44696;SDS011;57264;47.480;19.354;2022-11-20T23:33:51;53.20;;;20.98;;
44696;SDS011;57264;47.480;19.354;2022-11-20T23:36:16;45.73;;;18.60;;
44696;SDS011;57264;47.480;19.354;2022-11-20T23:38:42;48.35;;;19.02;;
44696;SDS011;57264;47.480;19.354;2022-11-20T23:41:08;37.63;;;17.60;;
44696;SDS011;57264;47.480;19.354;2022-11-20T23:46:28;55.83;;;21.50;;
44696;SDS011;57264;47.480;19.354;2022-11-20T23:48:54;63.67;;;21.93;;
44696;SDS011;57264;47.480;19.354;2022-11-20T23:51:19;62.30;;;23.50;;
44696;SDS011;57264;47.480;19.354;2022-11-20T23:53:45;56.97;;;24.40;;
44696;SDS011;57264;47.480;19.354;2022-11-20T23:56:10;62.67;;;26.73;;
44696;SDS011;57264;47.480;19.354;2022-11-20T23:58:38;70.15;;;27.48;;
